Time;durP1;ratioP1;P1;durP2;ratioP2;P2;SDS_P1;SDS_P2;PMS_P1;PMS_P2;Temp;Humidity;BMP_temperature;BMP_pressure;BME280_temperature;BME280_humidity;BME280_pressure;Samples;Min_cycle;Max_cycle;Signal;HPM_P1;HPM_P2
2022/08/05 00:00:09;;;;;;;6.57;2.90;;;31.20;57.00;;;;;;5003853;28;20038;-61
2022/08/05 00:02:34;;;;;;;9.93;2.97;;;31.20;57.10;;;;;;5003626;28;20045;-61
2022/08/05 00:05:00;;;;;;;6.63;2.58;;;31.10;57.10;;;;;;5001599;28;20041;-61
2022/08/05 00:07:25;;;;;;;13.52;3.35;;;31.10;57.20;;;;;;5002291;28;20030;-61
2022/08/05 00:09:51;;;;;;;8.77;3.22;;;31.10;57.90;;;;;;5005204;28;20257;-60
2022/08/05 00:12:16;;;;;;;6.40;2.78;;;31.10;57.30;;;;;;5003319;28;20119;-61
2022/08/05 00:14:42;;;;;;;7.32;2.72;;;31.00;57.40;;;;;;5004639;28;20551;-61
2022/08/05 00:17:07;;;;;;;5.18;2.40;;;31.00;57.50;;;;;;5007199;28;20186;-60
2022/08/05 00:19:33;;;;;;;8.93;2.97;;;31.00;57.60;;;;;;4990332;28;20087;-61
2022/08/05 00:21:58;;;;;;;9.80;2.70;;;31.00;57.60;;;;;;5008214;28;20100;-61
2022/08/05 00:24:24;;;;;;;5.80;2.80;;;30.90;57.70;;;;;;5005356;28;20096;-60
2022/08/05 00:26:49;;;;;;;6.65;2.75;;;30.90;57.70;;;;;;5007822;28;20119;-61
2022/08/05 00:29:15;;;;;;;10.05;2.88;;;30.90;57.70;;;;;;5007508;28;20293;-61
2022/08/05 00:31:40;;;;;;;11.75;2.50;;;30.90;57.70;;;;;;5004269;28;20030;-61
2022/08/05 00:34:06;;;;;;;3.88;2.65;;;30.90;57.80;;;;;;5007090;28;20112;-61
2022/08/05 00:36:31;;;;;;;5.68;2.45;;;30.90;57.80;;;;;;5005171;28;20544;-61
2022/08/05 00:38:57;;;;;;;12.23;3.33;;;30.80;57.80;;;;;;5007532;28;20037;-60
2022/08/05 00:41:27;;;;;;;10.05;3.00;;;30.80;57.90;;;;;;5004050;28;20045;-61
2022/08/05 00:43:52;;;;;;;7.90;2.65;;;30.80;58.50;;;;;;4988213;28;20347;-61
2022/08/05 00:46:18;;;;;;;9.18;2.97;;;30.80;57.80;;;;;;5008048;28;20030;-62
2022/08/05 00:48:43;;;;;;;6.22;2.63;;;30.70;57.80;;;;;;5006756;28;20088;-63
2022/08/05 00:51:09;;;;;;;5.15;2.85;;;30.70;57.90;;;;;;5006999;28;20029;-61
2022/08/05 00:53:34;;;;;;;5.82;2.75;;;30.70;57.90;;;;;;5007126;28;20141;-61
2022/08/05 00:56:00;;;;;;;6.50;2.97;;;30.70;58.10;;;;;;5007640;28;20288;-61
2022/08/05 00:58:26;;;;;;;6.97;2.75;;;30.70;58.20;;;;;;5006875;28;20041;-61
2022/08/05 01:00:51;;;;;;;6.82;2.40;;;30.60;58.10;;;;;;5007375;28;20045;-61
2022/08/05 01:03:16;;;;;;;5.43;2.40;;;30.60;58.30;;;;;;5005117;28;20029;-61
2022/08/05 01:05:42;;;;;;;6.95;2.40;;;30.60;58.50;;;;;;5006946;28;20034;-61
2022/08/05 01:08:08;;;;;;;4.85;2.40;;;30.50;58.70;;;;;;5004464;28;20548;-61
2022/08/05 01:10:57;;;;;;;12.45;2.83;;;30.50;59.00;;;;;;5005157;28;20025;-61
2022/08/05 01:13:30;;;;;;;14.18;3.08;;;30.50;59.20;;;;;;4990581;28;20138;-61
2022/08/05 01:15:58;;;;;;;11.07;2.30;;;30.40;59.30;;;;;;5005405;28;20034;-61
2022/08/05 01:18:25;;;;;;;10.32;2.90;;;30.40;59.50;;;;;;5005784;28;20430;-61
2022/08/05 01:21:33;;;;;;;61.83;5.63;;;30.30;59.50;;;;;;4988172;28;20059;-61
2022/08/05 01:24:41;;;;;;;22.23;2.90;;;30.20;59.60;;;;;;4973261;28;20056;-61
2022/08/05 01:27:33;;;;;;;19.38;3.72;;;30.20;59.70;;;;;;5004728;28;20527;-61
2022/08/05 01:30:01;;;;;;;22.35;3.63;;;30.20;59.90;;;;;;5006965;28;20041;-61
2022/08/05 01:32:26;;;;;;;29.65;3.67;;;30.10;60.00;;;;;;5004308;28;20091;-60
2022/08/05 01:35:05;;;;;;;29.13;3.22;;;30.10;60.00;;;;;;5003492;28;20027;-61
2022/08/05 01:37:34;;;;;;;16.88;3.50;;;30.00;60.00;;;;;;5004873;28;20029;-61
2022/08/05 01:39:59;;;;;;;10.82;2.97;;;30.00;60.10;;;;;;5007003;28;20390;-61
2022/08/05 01:42:25;;;;;;;18.98;3.20;;;30.00;60.10;;;;;;4970544;28;20046;-61
2022/08/05 01:44:51;;;;;;;27.27;3.45;;;29.90;60.10;;;;;;4988477;28;20301;-61
2022/08/05 01:47:17;;;;;;;13.40;3.08;;;29.90;60.50;;;;;;5002574;28;20544;-61
2022/08/05 01:49:43;;;;;;;15.23;3.03;;;29.90;60.50;;;;;;5005482;28;20164;-62
2022/08/05 01:52:08;;;;;;;12.05;2.50;;;29.90;60.80;;;;;;5004749;28;20025;-62
2022/08/05 01:54:40;;;;;;;16.63;3.45;;;29.80;60.80;;;;;;5005979;28;20042;-61
2022/08/05 01:57:06;;;;;;;13.75;2.65;;;29.80;60.90;;;;;;4988706;28;20021;-61
2022/08/05 01:59:31;;;;;;;16.10;2.80;;;29.70;61.00;;;;;;5001703;28;20049;-61
2022/08/05 02:01:57;;;;;;;14.43;3.17;;;29.70;61.40;;;;;;4987457;28;20490;-62
2022/08/05 02:04:23;;;;;;;15.20;3.13;;;29.60;61.40;;;;;;4989024;28;20030;-61
2022/08/05 02:06:48;;;;;;;13.63;2.83;;;29.60;61.60;;;;;;5020053;28;20034;-62
2022/08/05 02:09:14;;;;;;;12.55;2.80;;;29.60;61.80;;;;;;4987575;28;20026;-61
2022/08/05 02:11:44;;;;;;;11.63;2.55;;;29.50;62.10;;;;;;4987732;28;21042;-62
2022/08/05 02:14:16;;;;;;;13.85;2.38;;;29.50;62.40;;;;;;4988376;28;20030;-61
2022/08/05 02:16:51;;;;;;;13.77;3.25;;;29.40;62.40;;;;;;4986526;28;20029;-61
2022/08/05 02:19:21;;;;;;;9.18;2.08;;;29.40;62.60;;;;;;4987357;28;20030;-61
2022/08/05 02:21:58;;;;;;;8.93;2.40;;;29.40;62.70;;;;;;4986218;28;20117;-61
2022/08/05 02:24:36;;;;;;;9.00;2.30;;;29.40;62.90;;;;;;5004240;28;20026;-61
2022/08/05 02:27:02;;;;;;;12.57;2.35;;;29.30;62.80;;;;;;5003988;28;20513;-61
2022/08/05 02:29:28;;;;;;;5.47;2.10;;;29.30;63.00;;;;;;5000698;28;20562;-61
2022/08/05 02:31:57;;;;;;;14.68;2.38;;;29.30;63.00;;;;;;4988963;28;20061;-61
2022/08/05 02:34:23;;;;;;;8.00;2.28;;;29.30;63.20;;;;;;5001946;28;20095;-61
2022/08/05 02:36:53;;;;;;;10.00;2.33;;;29.30;63.40;;;;;;5002416;28;20129;-61
2022/08/05 02:39:20;;;;;;;6.25;2.08;;;29.30;63.50;;;;;;5003666;28;20042;-61
2022/08/05 02:41:46;;;;;;;7.32;2.38;;;29.20;63.60;;;;;;5004248;28;20164;-61
2022/08/05 02:44:12;;;;;;;13.65;2.80;;;29.20;63.70;;;;;;5002816;28;20437;-61
2022/08/05 02:46:38;;;;;;;9.55;2.50;;;29.20;63.60;;;;;;5004526;28;20022;-61
2022/08/05 02:49:04;;;;;;;8.93;2.22;;;29.20;63.70;;;;;;4986102;28;20038;-61
2022/08/05 02:51:30;;;;;;;8.75;2.40;;;29.20;63.70;;;;;;4986545;28;20038;-61
2022/08/05 02:53:55;;;;;;;9.57;2.08;;;29.20;63.70;;;;;;4988313;28;20022;-61
2022/08/05 02:56:21;;;;;;;19.60;2.42;;;29.10;63.60;;;;;;5005006;28;20859;-61
2022/08/05 02:58:46;;;;;;;11.95;3.03;;;29.10;63.70;;;;;;4986177;28;20393;-61
2022/08/05 03:01:24;;;;;;;18.92;2.88;;;29.10;64.00;;;;;;4986865;28;20038;-61
2022/08/05 03:03:53;;;;;;;20.63;2.80;;;29.10;64.10;;;;;;4970913;28;20033;-61
2022/08/05 03:06:20;;;;;;;10.43;2.92;;;29.10;64.20;;;;;;5002029;28;20033;-61
2022/08/05 03:08:45;;;;;;;16.15;3.45;;;29.10;64.10;;;;;;4986473;28;20061;-61
2022/08/05 03:11:18;;;;;;;14.60;2.63;;;29.00;64.10;;;;;;4987295;28;20492;-61
2022/08/05 03:13:43;;;;;;;13.65;2.75;;;29.00;64.30;;;;;;4986179;28;20038;-61
2022/08/05 03:16:09;;;;;;;9.25;2.67;;;29.00;64.50;;;;;;5003659;28;20029;-61
2022/08/05 03:18:34;;;;;;;13.98;2.58;;;29.00;64.60;;;;;;5002533;28;20038;-61
2022/08/05 03:21:00;;;;;;;13.25;2.70;;;29.00;64.60;;;;;;5004818;28;20033;-61
2022/08/05 03:23:25;;;;;;;8.43;2.42;;;28.90;64.70;;;;;;5005270;28;20504;-61
2022/08/05 03:25:51;;;;;;;13.18;2.60;;;28.90;64.70;;;;;;4986814;28;20033;-61
2022/08/05 03:28:16;;;;;;;12.48;2.60;;;28.90;64.50;;;;;;5001174;28;20026;-61
2022/08/05 03:30:42;;;;;;;9.18;2.80;;;28.90;64.40;;;;;;4987084;28;20137;-61
2022/08/05 03:33:07;;;;;;;11.50;2.83;;;28.90;64.40;;;;;;5003203;28;20090;-61
2022/08/05 03:35:33;;;;;;;6.18;2.30;;;28.80;64.60;;;;;;4985388;28;20500;-61
2022/08/05 03:37:59;;;;;;;6.28;2.15;;;28.80;64.80;;;;;;5000954;28;20437;-61
2022/08/05 03:40:24;;;;;;;6.80;2.47;;;28.80;64.90;;;;;;5003723;28;20552;-61
2022/08/05 03:42:50;;;;;;;10.38;2.47;;;28.70;64.80;;;;;;5002867;28;20465;-61
2022/08/05 03:45:15;;;;;;;8.30;2.20;;;28.70;64.90;;;;;;5004198;28;20381;-61
2022/08/05 03:47:41;;;;;;;4.45;1.85;;;28.70;65.00;;;;;;5003469;28;20390;-61
2022/08/05 03:50:07;;;;;;;5.30;2.53;;;28.70;65.00;;;;;;5010113;28;20540;-61
2022/08/05 03:52:35;;;;;;;11.18;2.10;;;28.70;64.90;;;;;;5009162;28;20140;-61
2022/08/05 03:55:02;;;;;;;9.00;2.10;;;28.70;64.90;;;;;;5007420;28;20042;-61
2022/08/05 03:57:31;;;;;;;6.45;2.47;;;28.60;64.90;;;;;;4992303;28;20473;-62
2022/08/05 04:00:02;;;;;;;7.70;2.08;;;28.60;64.80;;;;;;4991806;28;20083;-61
2022/08/05 04:02:30;;;;;;;8.05;2.50;;;28.60;64.90;;;;;;5010398;28;20477;-61
2022/08/05 04:04:56;;;;;;;8.50;2.40;;;28.50;64.80;;;;;;5008438;28;20037;-61
2022/08/05 04:07:22;;;;;;;6.68;1.92;;;28.50;64.90;;;;;;5008446;28;20104;-61
2022/08/05 04:09:48;;;;;;;3.72;1.70;;;28.50;65.00;;;;;;5007553;28;20497;-61
2022/08/05 04:12:13;;;;;;;5.50;1.77;;;28.50;65.20;;;;;;5009302;28;20034;-61
2022/08/05 04:14:39;;;;;;;5.47;2.35;;;28.50;65.20;;;;;;5009406;28;20397;-61
2022/08/05 04:17:04;;;;;;;3.05;1.73;;;28.50;65.40;;;;;;4992864;28;20482;-61
2022/08/05 04:19:30;;;;;;;4.72;1.70;;;28.40;65.50;;;;;;5008188;28;20493;-61
2022/08/05 04:21:56;;;;;;;4.63;2.00;;;28.40;65.50;;;;;;5009412;28;20044;-61
2022/08/05 04:24:21;;;;;;;7.60;1.80;;;28.40;65.30;;;;;;5009803;28;20430;-61
2022/08/05 04:26:46;;;;;;;12.98;2.10;;;28.40;65.30;;;;;;5008623;28;20033;-61
2022/08/05 04:29:12;;;;;;;4.70;1.80;;;28.40;65.30;;;;;;5009572;28;20402;-61
2022/08/05 04:31:37;;;;;;;5.00;2.00;;;28.30;65.20;;;;;;5009423;28;20045;-61
2022/08/05 04:34:03;;;;;;;4.25;1.85;;;28.30;65.70;;;;;;5010144;28;20034;-61
2022/08/05 04:36:28;;;;;;;5.13;1.63;;;28.30;65.30;;;;;;5007549;28;20291;-61
2022/08/05 04:38:54;;;;;;;3.45;2.00;;;28.30;65.30;;;;;;5009751;28;20155;-61
2022/08/05 04:41:20;;;;;;;6.07;1.67;;;28.30;65.40;;;;;;5008912;28;20552;-61
2022/08/05 04:43:45;;;;;;;6.68;1.90;;;28.30;65.40;;;;;;5008108;28;20036;-61
2022/08/05 04:46:11;;;;;;;2.03;1.60;;;28.30;65.40;;;;;;5010089;28;20401;-61
2022/08/05 04:48:36;;;;;;;6.10;1.92;;;28.20;65.40;;;;;;5009026;28;20069;-62
2022/08/05 04:51:02;;;;;;;3.45;1.80;;;28.20;65.40;;;;;;5009497;28;20488;-61
2022/08/05 04:53:27;;;;;;;6.40;1.95;;;28.20;65.50;;;;;;5009644;28;20037;-61
2022/08/05 04:55:53;;;;;;;3.03;1.80;;;28.20;65.50;;;;;;5007096;28;20103;-61
2022/08/05 04:58:19;;;;;;;3.55;1.70;;;28.20;65.70;;;;;;5008641;28;20088;-61
2022/08/05 05:00:44;;;;;;;5.18;1.88;;;28.20;66.00;;;;;;5005607;28;20088;-61
2022/08/05 05:03:10;;;;;;;3.80;1.73;;;28.20;66.10;;;;;;5005185;28;20117;-61
2022/08/05 05:05:35;;;;;;;3.40;1.60;;;28.10;65.70;;;;;;5008149;28;20026;-61
2022/08/05 05:08:06;;;;;;;5.50;1.70;;;28.10;65.80;;;;;;5006193;28;20036;-61
2022/08/05 05:10:33;;;;;;;2.53;1.50;;;28.10;65.90;;;;;;5006786;28;20441;-61
2022/08/05 05:12:58;;;;;;;7.18;1.90;;;28.10;66.60;;;;;;5006357;28;20049;-61
2022/08/05 05:15:25;;;;;;;3.90;1.60;;;28.10;66.10;;;;;;5005211;28;20135;-61
2022/08/05 05:17:50;;;;;;;3.00;1.63;;;28.10;66.10;;;;;;5005265;28;20111;-61
2022/08/05 05:20:16;;;;;;;2.67;1.70;;;28.10;66.40;;;;;;5004497;28;20489;-61
2022/08/05 05:22:41;;;;;;;3.20;1.50;;;28.00;66.40;;;;;;5005262;28;20044;-60
2022/08/05 05:25:11;;;;;;;3.08;1.85;;;28.00;66.80;;;;;;5005824;28;20184;-61
2022/08/05 05:27:36;;;;;;;5.20;1.75;;;28.00;66.90;;;;;;5005212;28;20390;-61
2022/08/05 05:30:02;;;;;;;3.33;1.70;;;28.00;66.80;;;;;;5005679;28;20034;-61
2022/08/05 05:32:28;;;;;;;4.38;1.80;;;27.90;66.70;;;;;;4990307;28;21311;-61
2022/08/05 05:34:53;;;;;;;2.35;1.60;;;28.00;66.40;;;;;;5006245;28;20026;-64
2022/08/05 05:37:19;;;;;;;3.85;1.77;;;28.00;66.40;;;;;;5005612;28;20472;-61
2022/08/05 05:39:45;;;;;;;2.25;1.50;;;27.90;66.20;;;;;;5005269;28;20057;-61
2022/08/05 05:42:10;;;;;;;2.25;1.67;;;27.90;66.30;;;;;;5006610;28;20076;-61
2022/08/05 05:44:36;;;;;;;1.65;1.40;;;28.00;66.40;;;;;;4999291;28;20038;-61
2022/08/05 05:47:01;;;;;;;2.83;1.60;;;27.90;66.40;;;;;;4997405;28;20040;-60
2022/08/05 05:49:27;;;;;;;2.38;1.60;;;27.90;66.60;;;;;;4980439;28;20021;-61
2022/08/05 05:51:53;;;;;;;2.40;1.60;;;28.00;66.80;;;;;;4997840;28;20033;-60
2022/08/05 05:54:18;;;;;;;2.63;1.70;;;28.00;66.90;;;;;;5001516;28;20026;-60
2022/08/05 05:56:44;;;;;;;2.92;2.00;;;27.90;67.10;;;;;;4998029;28;20036;-60
2022/08/05 05:59:09;;;;;;;4.43;2.00;;;27.90;67.80;;;;;;4982649;28;20466;-61
2022/08/05 06:01:36;;;;;;;3.55;1.92;;;28.00;67.40;;;;;;4999853;28;20034;-61
2022/08/05 06:04:02;;;;;;;2.55;2.13;;;27.90;67.10;;;;;;4998820;28;20045;-61
2022/08/05 06:06:28;;;;;;;5.18;2.28;;;27.90;67.40;;;;;;4998309;28;20069;-61
2022/08/05 06:08:53;;;;;;;6.53;2.30;;;27.90;67.70;;;;;;5001230;28;20051;-61
2022/08/05 06:11:19;;;;;;;17.00;3.30;;;27.90;67.80;;;;;;5001823;28;20367;-61
2022/08/05 06:13:44;;;;;;;86.93;13.00;;;27.90;68.20;;;;;;5001178;28;20285;-61
2022/08/05 06:16:10;;;;;;;20.13;4.70;;;27.90;68.50;;;;;;5001899;28;20038;-62
2022/08/05 06:18:36;;;;;;;15.25;4.28;;;27.80;68.50;;;;;;4999616;28;20116;-61
2022/08/05 06:21:02;;;;;;;17.13;3.08;;;27.80;68.50;;;;;;4997417;28;20018;-61
2022/08/05 06:23:27;;;;;;;15.18;3.67;;;27.70;68.90;;;;;;4997383;28;20486;-61
2022/08/05 06:25:53;;;;;;;8.25;3.22;;;27.80;68.90;;;;;;4998181;28;21344;-61
2022/08/05 06:28:18;;;;;;;17.48;3.55;;;27.80;69.10;;;;;;4999510;28;20034;-61
2022/08/05 06:30:44;;;;;;;9.77;3.35;;;27.70;69.50;;;;;;4997988;28;20029;-61
2022/08/05 06:33:09;;;;;;;14.10;3.35;;;27.70;69.40;;;;;;4999581;28;20492;-61
2022/08/05 06:35:35;;;;;;;11.73;3.63;;;27.70;69.50;;;;;;5001993;28;20057;-61
2022/08/05 06:38:00;;;;;;;16.85;3.20;;;27.70;69.70;;;;;;5000407;28;20041;-61
2022/08/05 06:40:26;;;;;;;11.00;3.15;;;27.70;69.80;;;;;;5000572;28;20038;-60
2022/08/05 06:42:51;;;;;;;27.38;4.43;;;27.60;70.10;;;;;;4997697;28;20121;-61
2022/08/05 06:45:17;;;;;;;15.45;3.10;;;27.60;70.40;;;;;;5000250;28;20029;-61
2022/08/05 06:47:42;;;;;;;21.27;3.28;;;27.60;69.90;;;;;;4998589;28;20452;-61
2022/08/05 06:50:08;;;;;;;20.45;3.53;;;27.50;69.90;;;;;;4999368;28;20539;-61
2022/08/05 06:52:34;;;;;;;47.55;6.32;;;27.60;70.20;;;;;;5014391;28;20037;-61
2022/08/05 06:54:59;;;;;;;13.68;3.67;;;27.50;70.50;;;;;;4999463;28;20477;-61
2022/08/05 06:57:25;;;;;;;19.27;3.33;;;27.60;70.70;;;;;;5001822;28;20033;-61
2022/08/05 06:59:50;;;;;;;16.20;3.33;;;27.60;70.60;;;;;;5001179;28;20029;-61
2022/08/05 07:02:16;;;;;;;21.48;3.42;;;27.60;70.60;;;;;;5002946;28;20052;-61
2022/08/05 07:04:41;;;;;;;39.28;6.43;;;27.50;70.50;;;;;;5001978;28;20509;-61
2022/08/05 07:07:07;;;;;;;28.90;4.85;;;27.50;70.50;;;;;;4998675;28;20051;-62
2022/08/05 07:09:32;;;;;;;30.13;4.20;;;27.60;70.60;;;;;;5000307;28;20041;-61
2022/08/05 07:11:58;;;;;;;24.60;4.30;;;27.60;70.40;;;;;;5000320;28;20053;-61
2022/08/05 07:17:07;;;;;;;33.28;4.18;;;27.60;70.30;;;;;;5002886;28;20083;-61
2022/08/05 07:19:33;;;;;;;20.90;4.03;;;27.50;70.30;;;;;;5002501;28;20049;-61
2022/08/05 07:21:58;;;;;;;30.45;4.00;;;27.50;70.20;;;;;;5003494;28;20038;-61
2022/08/05 07:24:24;;;;;;;32.58;4.43;;;27.60;70.10;;;;;;4999231;28;22352;-61
2022/08/05 07:26:50;;;;;;;29.55;4.85;;;27.60;70.10;;;;;;4999951;28;20038;-61
2022/08/05 07:29:15;;;;;;;19.42;4.28;;;27.50;70.20;;;;;;5000158;28;20025;-61
2022/08/05 07:31:41;;;;;;;21.63;3.85;;;27.50;70.20;;;;;;5001397;28;20033;-61
2022/08/05 07:34:07;;;;;;;43.10;5.28;;;27.50;70.10;;;;;;5000991;28;20041;-61
2022/08/05 07:36:32;;;;;;;23.73;4.40;;;27.50;70.10;;;;;;4997265;28;20072;-61
2022/08/05 07:39:02;;;;;;;35.53;4.63;;;27.50;70.30;;;;;;5017531;28;20536;-61
2022/08/05 07:41:27;;;;;;;43.53;6.72;;;27.50;70.30;;;;;;4998112;28;20505;-61
2022/08/05 07:43:53;;;;;;;32.80;3.95;;;27.40;70.20;;;;;;4998081;28;20040;-61
2022/08/05 07:46:19;;;;;;;38.80;5.32;;;27.40;70.20;;;;;;4999642;28;20029;-61
2022/08/05 07:48:45;;;;;;;37.13;4.63;;;27.40;70.20;;;;;;4996152;28;21499;-61
2022/08/05 07:51:10;;;;;;;26.92;4.70;;;27.40;70.30;;;;;;4996637;28;20099;-61
2022/08/05 07:53:36;;;;;;;30.25;5.38;;;27.40;70.40;;;;;;4996572;28;20033;-61
2022/08/05 07:56:05;;;;;;;33.80;5.07;;;27.40;70.20;;;;;;4998685;28;20030;-61
2022/08/05 07:58:30;;;;;;;33.92;5.93;;;27.40;69.90;;;;;;4994331;28;20037;-61
2022/08/05 08:00:56;;;;;;;38.40;4.85;;;27.50;70.00;;;;;;4996163;28;20038;-61
2022/08/05 08:03:21;;;;;;;37.30;4.88;;;27.50;70.00;;;;;;4996387;28;20073;-61
2022/08/05 08:05:50;;;;;;;41.13;4.85;;;27.60;70.10;;;;;;4997795;28;20030;-61
2022/08/05 08:08:15;;;;;;;27.30;4.65;;;27.60;70.10;;;;;;4998322;28;20034;-61
2022/08/05 08:10:41;;;;;;;24.33;4.85;;;27.60;69.80;;;;;;4981561;28;20033;-61
2022/08/05 08:13:06;;;;;;;34.85;5.28;;;27.60;69.60;;;;;;4997385;28;20091;-61
2022/08/05 08:15:32;;;;;;;34.40;5.88;;;27.60;69.90;;;;;;4995841;28;20563;-61
2022/08/05 08:17:57;;;;;;;26.55;5.05;;;27.60;70.00;;;;;;4993328;28;20128;-61
2022/08/05 08:20:23;;;;;;;18.75;4.45;;;27.60;69.70;;;;;;4998234;28;20046;-61
2022/08/05 08:22:53;;;;;;;27.40;4.68;;;27.60;69.60;;;;;;4995921;28;20033;-60
2022/08/05 08:25:19;;;;;;;37.42;5.47;;;27.60;69.30;;;;;;4996913;28;20030;-61
2022/08/05 08:27:44;;;;;;;27.67;5.10;;;27.70;69.90;;;;;;4998078;28;20096;-61
2022/08/05 08:30:10;;;;;;;33.92;5.47;;;27.70;69.70;;;;;;4998755;28;20424;-61
2022/08/05 08:32:36;;;;;;;33.22;5.25;;;27.70;70.70;;;;;;4997046;28;20030;-62
2022/08/05 08:35:02;;;;;;;26.67;5.05;;;27.70;70.00;;;;;;4995530;28;20024;-61
2022/08/05 08:37:27;;;;;;;32.67;4.95;;;27.70;69.90;;;;;;5000315;28;20513;-61
2022/08/05 08:39:53;;;;;;;53.30;6.28;;;27.80;70.00;;;;;;4998555;28;20160;-61
2022/08/05 08:42:18;;;;;;;42.70;4.82;;;27.80;70.40;;;;;;4995743;28;20104;-61
2022/08/05 08:44:44;;;;;;;42.97;5.35;;;27.80;70.20;;;;;;4982416;28;20152;-61
2022/08/05 08:47:09;;;;;;;52.47;6.20;;;27.80;69.90;;;;;;5000155;28;20021;-61
2022/08/05 08:49:35;;;;;;;33.30;5.38;;;27.90;69.90;;;;;;5016239;28;20295;-61
2022/08/05 08:52:07;;;;;;;49.85;5.93;;;27.90;69.70;;;;;;4999631;28;20484;-61
2022/08/05 08:54:34;;;;;;;39.53;5.60;;;28.00;69.70;;;;;;5002589;28;20076;-61
2022/08/05 08:56:59;;;;;;;38.65;4.85;;;28.00;69.40;;;;;;5001421;28;20029;-61
2022/08/05 08:59:25;;;;;;;33.03;5.43;;;28.00;69.20;;;;;;5003174;28;20041;-60
2022/08/05 09:01:50;;;;;;;40.88;6.40;;;28.00;69.00;;;;;;5001605;28;20018;-62
2022/08/05 09:04:16;;;;;;;47.70;6.90;;;28.00;68.90;;;;;;5018879;28;20139;-62
2022/08/05 09:06:41;;;;;;;55.30;7.03;;;28.00;68.60;;;;;;5002154;28;20497;-61
2022/08/05 09:09:07;;;;;;;64.65;8.27;;;28.10;68.60;;;;;;4984659;28;20037;-61
2022/08/05 09:11:32;;;;;;;54.47;8.27;;;28.10;68.60;;;;;;4967441;28;20766;-61
2022/08/05 09:13:59;;;;;;;66.70;7.32;;;28.10;68.50;;;;;;5001351;28;20109;-61
2022/08/05 09:16:25;;;;;;;59.45;7.40;;;28.20;68.50;;;;;;5004569;28;20030;-61
2022/08/05 09:18:50;;;;;;;36.60;6.43;;;28.30;68.50;;;;;;4998588;28;20437;-61
2022/08/05 09:21:16;;;;;;;39.60;6.30;;;28.20;68.30;;;;;;4987195;28;20069;-61
2022/08/05 09:23:43;;;;;;;44.42;6.97;;;28.20;68.10;;;;;;4997113;28;20022;-61
2022/08/05 09:26:10;;;;;;;50.03;5.72;;;28.30;68.20;;;;;;4980720;28;20029;-61
2022/08/05 09:28:37;;;;;;;45.38;5.88;;;28.30;68.10;;;;;;4998807;28;20021;-61
2022/08/05 09:31:07;;;;;;;45.08;6.78;;;28.30;68.10;;;;;;4996451;28;20077;-61
2022/08/05 09:33:46;;;;;;;48.00;7.07;;;28.40;68.00;;;;;;4978470;28;20034;-61
2022/08/05 09:36:11;;;;;;;45.20;7.65;;;28.40;67.90;;;;;;4978960;28;20033;-61
2022/08/05 09:38:37;;;;;;;60.42;8.13;;;28.40;67.90;;;;;;4992668;28;20113;-61
2022/08/05 09:41:08;;;;;;;48.17;6.88;;;28.40;67.80;;;;;;4996716;28;20152;-61
2022/08/05 09:43:35;;;;;;;42.78;7.40;;;28.50;67.90;;;;;;5000963;28;20041;-61
2022/08/05 09:46:01;;;;;;;71.95;9.77;;;28.50;67.80;;;;;;4996924;28;20528;-61
2022/08/05 09:48:28;;;;;;;64.03;8.45;;;28.50;67.90;;;;;;4997557;28;20042;-61
2022/08/05 09:51:02;;;;;;;52.55;7.45;;;28.50;67.80;;;;;;5015300;28;20101;-61
2022/08/05 09:53:28;;;;;;;63.42;8.50;;;28.60;67.90;;;;;;4982497;28;20030;-61
2022/08/05 09:55:57;;;;;;;75.43;8.45;;;28.60;67.80;;;;;;4981073;28;20398;-61
2022/08/05 09:58:22;;;;;;;53.00;7.43;;;28.60;67.90;;;;;;4998901;28;20061;-61
2022/08/05 10:00:59;;;;;;;60.28;8.02;;;28.70;67.80;;;;;;4993867;28;20132;-61
2022/08/05 10:03:25;;;;;;;51.17;8.27;;;28.80;67.70;;;;;;5011567;28;20037;-61
2022/08/05 10:06:20;;;;;;;56.75;7.65;;;28.80;67.60;;;;;;4995826;28;20222;-61
2022/08/05 10:08:45;;;;;;;35.30;6.57;;;28.80;67.50;;;;;;4986380;28;20069;-61
2022/08/05 10:11:15;;;;;;;39.20;6.32;;;28.80;67.30;;;;;;4993167;28;20529;-61
2022/08/05 10:13:41;;;;;;;39.35;6.35;;;28.90;67.50;;;;;;4994704;28;20025;-61
2022/08/05 10:16:07;;;;;;;40.30;6.25;;;28.90;67.20;;;;;;4993646;28;20095;-61
2022/08/05 10:18:33;;;;;;;48.22;6.47;;;29.00;67.30;;;;;;4980098;28;20076;-61
2022/08/05 10:21:00;;;;;;;55.50;6.47;;;29.00;67.10;;;;;;4996718;28;20456;-61
2022/08/05 10:23:27;;;;;;;41.03;5.93;;;29.00;66.90;;;;;;4997477;28;20034;-61
2022/08/05 10:25:57;;;;;;;34.90;5.55;;;29.10;66.80;;;;;;4979896;28;20029;-61
2022/08/05 10:28:23;;;;;;;26.23;4.60;;;29.10;66.50;;;;;;4977117;28;20064;-61
2022/08/05 10:30:50;;;;;;;28.20;5.70;;;29.10;66.30;;;;;;4994595;28;20030;-61
2022/08/05 10:33:16;;;;;;;31.58;4.45;;;29.10;66.30;;;;;;4996018;28;20572;-61
2022/08/05 10:35:41;;;;;;;33.03;5.03;;;29.20;66.20;;;;;;4994678;28;20033;-61
2022/08/05 10:38:07;;;;;;;19.35;4.25;;;29.20;65.90;;;;;;4991037;28;20033;-61
2022/08/05 10:40:53;;;;;;;24.40;4.60;;;29.30;65.60;;;;;;4986718;28;20808;-61
2022/08/05 10:43:34;;;;;;;18.15;3.65;;;29.40;65.50;;;;;;5007117;28;20064;-61
2022/08/05 10:46:03;;;;;;;25.17;3.78;;;29.30;65.10;;;;;;4994950;28;20052;-61
2022/08/05 10:48:33;;;;;;;22.83;4.20;;;29.40;65.20;;;;;;4996487;28;20038;-61
2022/08/05 10:51:00;;;;;;;27.20;4.13;;;29.50;65.20;;;;;;4989604;28;20451;-61
2022/08/05 10:53:36;;;;;;;51.08;6.25;;;29.50;65.00;;;;;;4991960;28;20022;-63
2022/08/05 10:56:04;;;;;;;20.85;4.35;;;29.50;65.60;;;;;;4993094;28;21175;-61
2022/08/05 10:58:30;;;;;;;38.13;4.80;;;29.60;65.00;;;;;;4985345;28;20040;-61
2022/08/05 11:00:55;;;;;;;40.42;4.22;;;29.60;64.80;;;;;;4959181;28;20541;-61
2022/08/05 11:03:21;;;;;;;19.90;3.95;;;29.70;64.80;;;;;;4989187;28;20589;-61
2022/08/05 11:06:11;;;;;;;26.67;4.47;;;29.80;64.50;;;;;;4994094;28;20041;-61
2022/08/05 11:08:36;;;;;;;43.17;4.18;;;29.80;64.60;;;;;;4988417;28;20038;-61
2022/08/05 11:11:36;;;;;;;25.10;4.68;;;29.90;64.50;;;;;;4991460;28;20038;-61
2022/08/05 11:14:02;;;;;;;29.27;3.70;;;30.00;64.20;;;;;;4998144;28;20026;-61
2022/08/05 11:16:28;;;;;;;30.48;4.53;;;30.00;64.10;;;;;;4993173;28;20034;-61
2022/08/05 11:19:28;;;;;;;35.17;4.55;;;30.10;64.20;;;;;;4987324;28;20394;-61
2022/08/05 11:21:55;;;;;;;21.98;4.28;;;30.10;63.70;;;;;;5008928;28;20112;-61
2022/08/05 11:24:22;;;;;;;41.67;4.63;;;30.20;63.60;;;;;;4976466;28;20018;-61
2022/08/05 11:26:48;;;;;;;32.28;4.40;;;30.20;63.70;;;;;;4992303;28;20131;-61
2022/08/05 11:29:36;;;;;;;30.15;4.55;;;30.30;63.70;;;;;;4990358;28;20034;-61
2022/08/05 11:32:21;;;;;;;34.30;5.07;;;30.40;63.70;;;;;;4997686;28;20427;-61
2022/08/05 11:34:47;;;;;;;38.78;6.68;;;30.50;63.20;;;;;;4990713;28;20037;-61
2022/08/05 11:37:19;;;;;;;26.40;4.60;;;30.60;63.10;;;;;;4989442;28;20026;-61
2022/08/05 11:39:49;;;;;;;31.05;4.13;;;30.60;62.60;;;;;;4996405;28;20107;-61
2022/08/05 11:42:16;;;;;;;30.30;3.95;;;30.70;62.40;;;;;;4996645;28;20425;-61
2022/08/05 11:44:41;;;;;;;20.15;3.60;;;30.80;62.20;;;;;;4982537;28;20026;-61
2022/08/05 11:47:07;;;;;;;18.88;3.83;;;30.80;62.10;;;;;;4995202;28;20037;-61
2022/08/05 11:49:32;;;;;;;19.35;3.88;;;30.90;61.90;;;;;;4999774;28;20349;-61
2022/08/05 11:51:58;;;;;;;23.42;3.92;;;30.90;61.70;;;;;;4998787;28;20022;-61
2022/08/05 11:54:33;;;;;;;19.17;3.28;;;31.00;61.60;;;;;;4998134;28;20359;-61
2022/08/05 11:56:59;;;;;;;19.27;3.50;;;31.00;61.00;;;;;;4998332;28;20026;-61
2022/08/05 11:59:26;;;;;;;18.80;3.30;;;31.10;60.90;;;;;;5000812;28;20029;-61
2022/08/05 12:01:53;;;;;;;13.98;3.17;;;31.20;61.10;;;;;;4999307;28;20105;-61
2022/08/05 12:04:18;;;;;;;25.63;3.97;;;31.30;60.50;;;;;;4999354;28;20037;-61
2022/08/05 12:06:44;;;;;;;18.63;3.40;;;31.40;60.40;;;;;;4998557;28;20037;-62
2022/08/05 12:09:09;;;;;;;17.55;3.33;;;31.40;60.40;;;;;;4996860;28;20061;-61
2022/08/05 12:11:35;;;;;;;9.88;3.30;;;31.40;60.40;;;;;;5001194;28;20482;-61
2022/08/05 12:14:04;;;;;;;15.10;3.55;;;31.50;60.30;;;;;;5005124;28;20042;-61
2022/08/05 12:16:38;;;;;;;17.38;3.22;;;31.50;59.80;;;;;;5000828;28;21065;-61
2022/08/05 12:19:09;;;;;;;14.20;2.95;;;31.60;59.40;;;;;;4999701;28;20478;-61
2022/08/05 12:21:41;;;;;;;15.68;3.17;;;31.60;59.70;;;;;;5002235;28;20049;-61
2022/08/05 12:24:07;;;;;;;14.43;3.53;;;31.70;59.70;;;;;;4986931;28;20172;-61
2022/08/05 12:26:38;;;;;;;18.02;3.72;;;31.70;58.80;;;;;;5002680;28;20133;-61
2022/08/05 12:29:04;;;;;;;13.30;2.83;;;31.80;58.50;;;;;;5003091;28;20037;-61
2022/08/05 12:31:32;;;;;;;12.55;2.75;;;31.90;59.20;;;;;;5001134;28;20030;-61
2022/08/05 12:33:58;;;;;;;13.05;3.08;;;32.00;58.60;;;;;;4982606;28;20176;-61
2022/08/05 12:36:23;;;;;;;16.90;3.05;;;32.10;58.00;;;;;;4997907;28;20042;-62
2022/08/05 12:38:49;;;;;;;16.60;3.13;;;32.10;58.10;;;;;;4998996;28;20044;-61
2022/08/05 12:41:15;;;;;;;22.98;3.17;;;32.30;57.50;;;;;;4999840;28;20051;-61
2022/08/05 12:43:49;;;;;;;13.57;3.53;;;32.30;57.60;;;;;;4998381;28;20080;-62